createdAt,value
2022-10-31T00:00:31.079Z,19.95
2022-10-31T00:02:57.859Z,19.84
2022-10-31T00:05:24.566Z,19.59
2022-10-31T00:07:53.721Z,19.76
2022-10-31T00:10:20.189Z,20.07
2022-10-31T00:12:46.654Z,20.10
2022-10-31T00:15:13.277Z,19.82
2022-10-31T00:17:39.761Z,20.02
2022-10-31T00:20:06.954Z,19.97
2022-10-31T00:22:43.407Z,20.20
2022-10-31T00:25:09.849Z,19.87
2022-10-31T00:27:36.261Z,19.21
2022-10-31T00:30:02.982Z,19.90
2022-10-31T00:32:31.184Z,20.29
2022-10-31T00:34:57.682Z,19.82
2022-10-31T00:37:24.177Z,20.22
2022-10-31T00:39:50.698Z,20.38
2022-10-31T00:42:17.183Z,20.39
2022-10-31T00:44:43.656Z,20.08
2022-10-31T00:47:10.148Z,19.98
2022-10-31T00:49:36.892Z,20.27
2022-10-31T00:52:03.437Z,20.40
2022-10-31T00:54:31.841Z,20.23
2022-10-31T00:56:58.644Z,20.46
2022-10-31T00:59:25.182Z,20.36
2022-10-31T01:01:51.869Z,20.61
2022-10-31T01:04:18.489Z,20.18
2022-10-31T01:06:44.921Z,20.12
2022-10-31T01:09:11.392Z,20.34
2022-10-31T01:11:37.974Z,20.33
2022-10-31T01:14:04.481Z,20.15
2022-10-31T01:16:31.022Z,20.43
2022-10-31T01:18:57.637Z,20.41
2022-10-31T01:21:26.363Z,20.13
2022-10-31T01:23:56.361Z,20.05
2022-10-31T01:26:25.183Z,20.29
2022-10-31T01:28:52.451Z,20.31
2022-10-31T01:31:20.929Z,20.39
2022-10-31T01:33:47.535Z,20.46
2022-10-31T01:36:14.218Z,20.32
2022-10-31T01:38:40.846Z,20.42
2022-10-31T01:41:07.450Z,20.03
2022-10-31T01:44:15.408Z,20.15
2022-10-31T01:46:46.274Z,20.28
2022-10-31T01:49:16.387Z,20.28
2022-10-31T01:51:48.425Z,20.01
2022-10-31T01:54:17.318Z,20.07
2022-10-31T01:56:45.690Z,18.81
2022-10-31T01:59:13.690Z,19.04
2022-10-31T02:01:40.706Z,19.45
2022-10-31T02:04:08.087Z,19.53
2022-10-31T02:06:34.870Z,19.80
2022-10-31T02:09:01.674Z,19.69
2022-10-31T02:11:29.235Z,19.70
2022-10-31T02:13:55.894Z,19.78
2022-10-31T02:16:22.406Z,19.84
2022-10-31T02:18:49.020Z,19.77
2022-10-31T02:21:20.034Z,19.94
2022-10-31T02:23:55.575Z,20.09
2022-10-31T02:27:04.767Z,20.16
2022-10-31T02:30:03.711Z,20.07
2022-10-31T02:33:07.297Z,19.53
2022-10-31T02:35:48.943Z,19.30
2022-10-31T02:38:15.374Z,19.47
2022-10-31T02:41:11.675Z,19.23
2022-10-31T02:43:47.759Z,19.33
2022-10-31T02:46:25.881Z,19.43
2022-10-31T02:48:55.986Z,19.43
2022-10-31T02:51:22.531Z,18.90
2022-10-31T02:53:48.993Z,19.23
2022-10-31T02:56:19.656Z,19.25
2022-10-31T02:58:50.883Z,19.23
2022-10-31T03:01:39.529Z,19.26
2022-10-31T03:04:21.480Z,19.16
2022-10-31T03:07:06.110Z,19.11
2022-10-31T03:09:42.156Z,19.08
2022-10-31T03:12:11.162Z,18.76
2022-10-31T03:14:55.106Z,19.03
2022-10-31T03:17:35.224Z,19.03
2022-10-31T03:20:02.179Z,19.04
2022-10-31T03:22:32.537Z,19.02
2022-10-31T03:24:59.444Z,18.68
2022-10-31T03:27:27.809Z,18.35
2022-10-31T03:29:56.641Z,18.62
2022-10-31T03:32:35.995Z,18.70
2022-10-31T03:35:03.853Z,18.69
2022-10-31T03:37:32.857Z,18.78
2022-10-31T03:40:01.243Z,18.76
2022-10-31T03:42:30.757Z,18.84
2022-10-31T03:45:01.335Z,18.96
2022-10-31T03:47:28.037Z,19.01
2022-10-31T03:49:54.823Z,19.23
2022-10-31T03:52:27.385Z,19.30
2022-10-31T03:54:58.116Z,19.29
2022-10-31T03:57:32.773Z,19.48
2022-10-31T04:00:08.224Z,19.54
2022-10-31T04:02:36.165Z,19.35
2022-10-31T04:05:02.932Z,18.33
2022-10-31T04:07:33.843Z,18.36
2022-10-31T04:10:01.440Z,18.92
2022-10-31T04:12:29.203Z,18.89
2022-10-31T04:14:56.557Z,18.66
2022-10-31T04:17:24.381Z,18.26
2022-10-31T04:19:50.889Z,18.18
2022-10-31T04:22:17.361Z,18.25
2022-10-31T04:24:43.847Z,17.90
2022-10-31T04:27:12.536Z,17.69
2022-10-31T04:29:39.240Z,18.08
2022-10-31T04:32:05.766Z,17.42
2022-10-31T04:34:32.398Z,17.94
2022-10-31T04:36:58.863Z,18.29
2022-10-31T04:39:26.755Z,18.42
2022-10-31T04:41:53.538Z,18.10
2022-10-31T04:44:20.060Z,18.35
2022-10-31T04:46:46.680Z,18.09
2022-10-31T04:49:13.292Z,18.27
2022-10-31T04:51:39.828Z,18.10
2022-10-31T04:54:06.326Z,18.27
2022-10-31T04:56:32.809Z,18.04
2022-10-31T04:58:59.247Z,18.38
2022-10-31T05:01:25.922Z,18.26
2022-10-31T05:03:52.491Z,18.46
2022-10-31T05:06:18.989Z,18.47
2022-10-31T05:08:45.475Z,18.39
2022-10-31T05:11:12.138Z,18.08
2022-10-31T05:13:38.735Z,18.19
2022-10-31T05:16:08.040Z,18.30
2022-10-31T05:18:36.080Z,18.38
2022-10-31T05:21:02.601Z,18.33
2022-10-31T05:23:29.282Z,18.14
2022-10-31T05:25:55.740Z,18.01
2022-10-31T05:28:22.239Z,18.00
2022-10-31T05:30:48.992Z,17.69
2022-10-31T05:33:15.494Z,17.50
2022-10-31T05:35:41.963Z,17.69
2022-10-31T05:38:08.424Z,17.62
2022-10-31T05:40:34.854Z,17.49
2022-10-31T05:43:01.713Z,17.66
2022-10-31T05:45:28.395Z,17.59
2022-10-31T05:48:00.189Z,17.65
2022-10-31T05:50:29.148Z,17.77
2022-10-31T05:53:05.865Z,17.71
2022-10-31T05:55:32.839Z,17.48
2022-10-31T05:58:00.177Z,17.63
2022-10-31T06:00:27.494Z,17.69
2022-10-31T06:03:05.319Z,17.72
2022-10-31T06:05:32.093Z,17.51
2022-10-31T06:07:59.277Z,17.65
2022-10-31T06:10:26.691Z,17.54
2022-10-31T06:12:53.222Z,17.51
2022-10-31T06:15:23.796Z,17.64
2022-10-31T06:18:05.089Z,17.47
2022-10-31T06:20:32.053Z,17.63
2022-10-31T06:22:58.941Z,17.69
2022-10-31T06:25:25.774Z,17.86
2022-10-31T06:27:52.290Z,17.90
2022-10-31T06:30:18.933Z,17.69
2022-10-31T06:32:55.455Z,17.92
2022-10-31T06:35:21.942Z,17.91
2022-10-31T06:37:56.381Z,17.61
2022-10-31T06:40:23.242Z,17.89
2022-10-31T06:43:00.594Z,17.92
2022-10-31T06:45:29.225Z,17.99
2022-10-31T06:48:16.039Z,17.81
2022-10-31T06:50:43.534Z,16.91
2022-10-31T06:55:42.531Z,17.90
2022-10-31T06:58:10.342Z,18.12
2022-10-31T07:00:37.204Z,18.22
2022-10-31T07:03:10.228Z,18.34
2022-10-31T07:05:36.710Z,18.36
2022-10-31T07:08:09.489Z,18.27
2022-10-31T07:10:40.215Z,18.69
2022-10-31T07:13:11.698Z,18.81
2022-10-31T07:15:40.614Z,18.70
2022-10-31T07:18:10.706Z,18.45
2022-10-31T07:20:37.336Z,18.83
2022-10-31T07:23:04.598Z,18.89
2022-10-31T07:25:31.479Z,19.03
2022-10-31T07:27:58.411Z,19.14
2022-10-31T07:30:25.053Z,18.94
2022-10-31T07:32:51.751Z,19.05
2022-10-31T07:35:23.343Z,19.12
2022-10-31T07:37:50.249Z,19.35
2022-10-31T07:40:17.558Z,19.50
2022-10-31T07:42:48.611Z,19.48
2022-10-31T07:45:20.029Z,19.61
2022-10-31T07:47:48.878Z,19.72
2022-10-31T07:50:18.951Z,19.76
2022-10-31T07:52:45.461Z,19.71
2022-10-31T07:55:12.199Z,19.89
2022-10-31T07:57:38.793Z,19.98
2022-10-31T08:00:07.060Z,19.96
2022-10-31T08:02:33.925Z,19.97
2022-10-31T08:05:01.543Z,19.68
2022-10-31T08:07:28.935Z,19.77
2022-10-31T08:09:56.333Z,19.71
2022-10-31T08:12:22.870Z,19.82
2022-10-31T08:14:49.386Z,19.91
2022-10-31T08:17:16.075Z,20.11
2022-10-31T08:19:42.555Z,20.15
2022-10-31T08:22:09.029Z,20.20
2022-10-31T08:24:35.490Z,20.32
2022-10-31T08:27:02.052Z,20.51
2022-10-31T08:29:29.393Z,20.66
2022-10-31T08:31:58.624Z,20.95
2022-10-31T08:34:25.182Z,20.87
2022-10-31T08:36:52.653Z,21.18
2022-10-31T08:39:19.578Z,21.37
2022-10-31T08:41:46.136Z,21.59
2022-10-31T08:44:12.724Z,21.59
2022-10-31T08:46:39.255Z,21.92
2022-10-31T08:49:05.687Z,22.04
2022-10-31T08:51:32.168Z,21.88
2022-10-31T08:53:58.817Z,22.49
2022-10-31T08:56:25.274Z,22.76
2022-10-31T08:58:54.095Z,23.22
2022-10-31T09:01:20.705Z,23.75
2022-10-31T09:03:47.307Z,24.12
2022-10-31T09:06:13.883Z,24.30
2022-10-31T09:08:40.466Z,24.20
2022-10-31T09:11:07.614Z,24.34
2022-10-31T09:13:38.747Z,24.25
2022-10-31T09:16:07.908Z,24.66
2022-10-31T09:18:34.803Z,24.74
2022-10-31T09:21:01.691Z,25.68
2022-10-31T09:23:28.444Z,26.65
2022-10-31T09:25:55.442Z,28.33
2022-10-31T09:28:23.710Z,29.81
2022-10-31T09:30:53.441Z,30.90
2022-10-31T09:33:20.759Z,31.31
2022-10-31T09:35:47.533Z,29.32
2022-10-31T09:38:16.679Z,29.47
2022-10-31T09:40:46.471Z,28.50
2022-10-31T09:43:40.418Z,28.81
2022-10-31T09:46:25.626Z,30.25
2022-10-31T09:49:43.505Z,30.22
2022-10-31T09:52:49.293Z,30.11
2022-10-31T09:55:19.380Z,29.65
2022-10-31T09:57:46.651Z,32.03
2022-10-31T10:00:18.921Z,34.03
2022-10-31T10:03:03.666Z,36.06
2022-10-31T10:05:38.340Z,36.27
2022-10-31T10:08:11.835Z,35.15
2022-10-31T10:10:52.968Z,35.81
2022-10-31T10:13:50.576Z,36.68
2022-10-31T10:16:55.573Z,37.60
2022-10-31T10:19:44.713Z,36.46
2022-10-31T10:22:48.878Z,36.18
2022-10-31T10:25:17.327Z,35.11
2022-10-31T10:27:46.791Z,34.24
2022-10-31T10:30:43.381Z,34.42
2022-10-31T10:33:25.525Z,34.44
2022-10-31T10:35:59.696Z,33.14
2022-10-31T10:38:40.357Z,32.64
2022-10-31T10:41:13.746Z,31.56
2022-10-31T10:43:40.262Z,30.23
2022-10-31T10:46:28.474Z,30.61
2022-10-31T10:49:13.088Z,30.00
2022-10-31T10:55:04.430Z,29.71
2022-10-31T10:57:36.912Z,29.45
2022-10-31T11:00:19.919Z,29.27
2022-10-31T11:02:48.874Z,29.77
2022-10-31T11:05:27.376Z,28.31
2022-10-31T11:07:53.989Z,29.30
2022-10-31T11:10:20.723Z,29.78
2022-10-31T11:13:01.806Z,30.30
2022-10-31T11:15:29.371Z,31.01
2022-10-31T11:17:57.285Z,31.41
2022-10-31T11:20:32.900Z,32.26
2022-10-31T11:23:19.981Z,33.79
2022-10-31T11:25:52.033Z,35.37
2022-10-31T11:28:18.584Z,35.17
2022-10-31T11:30:53.826Z,35.65
2022-10-31T11:33:25.499Z,36.24
2022-10-31T11:35:56.923Z,37.87
2022-10-31T11:38:27.453Z,38.28
2022-10-31T11:40:56.341Z,37.70
2022-10-31T11:43:23.465Z,38.48
2022-10-31T11:45:50.198Z,39.51
2022-10-31T11:48:19.729Z,38.82
2022-10-31T11:50:56.016Z,38.81
2022-10-31T11:53:30.224Z,38.40
2022-10-31T11:56:16.822Z,37.58
2022-10-31T11:58:43.605Z,37.13
2022-10-31T12:01:26.821Z,33.49
2022-10-31T12:03:56.877Z,32.31
2022-10-31T12:06:33.051Z,29.16
2022-10-31T12:09:00.609Z,27.81
2022-10-31T12:11:40.315Z,28.06
2022-10-31T12:14:15.879Z,27.68
2022-10-31T12:16:53.585Z,27.32
2022-10-31T12:19:48.296Z,25.87
2022-10-31T12:22:25.134Z,25.75
2022-10-31T12:25:09.144Z,25.28
2022-10-31T12:27:44.514Z,25.95
2022-10-31T12:30:22.381Z,25.05
2022-10-31T12:33:16.838Z,25.14
2022-10-31T12:35:49.290Z,24.78
2022-10-31T12:38:16.088Z,25.64
2022-10-31T12:41:02.185Z,25.77
2022-10-31T12:43:50.050Z,25.46
2022-10-31T12:46:26.940Z,24.46
2022-10-31T12:49:30.547Z,24.38
2022-10-31T12:52:15.324Z,24.39
2022-10-31T12:54:57.189Z,24.69
2022-10-31T12:57:50.253Z,24.58
2022-10-31T13:00:18.849Z,25.11
2022-10-31T13:03:10.390Z,24.11
2022-10-31T13:05:46.931Z,24.74
2022-10-31T13:08:17.211Z,24.78
2022-10-31T13:11:06.567Z,24.80
2022-10-31T13:13:51.882Z,24.41
2022-10-31T13:16:21.534Z,24.60
2022-10-31T13:18:55.738Z,24.78
2022-10-31T13:21:27.314Z,24.83
2022-10-31T13:23:56.058Z,24.57
2022-10-31T13:26:22.473Z,24.59
2022-10-31T13:29:10.640Z,24.46
2022-10-31T13:31:41.037Z,24.45
2022-10-31T13:34:19.425Z,24.29
2022-10-31T13:36:55.535Z,24.38
2022-10-31T13:39:39.394Z,24.46
2022-10-31T13:42:27.140Z,24.59
2022-10-31T13:44:53.600Z,24.39
2022-10-31T13:47:30.252Z,24.67
2022-10-31T13:50:20.987Z,24.25
2022-10-31T13:52:47.595Z,24.13
2022-10-31T13:55:41.046Z,24.20
2022-10-31T13:58:41.851Z,24.46
2022-10-31T14:01:11.241Z,24.98
2022-10-31T14:04:03.646Z,24.49
2022-10-31T14:06:36.911Z,24.37
2022-10-31T14:09:03.762Z,23.98
2022-10-31T14:11:34.512Z,24.16
2022-10-31T14:14:03.888Z,23.87
2022-10-31T14:16:32.902Z,23.98
2022-10-31T14:19:03.468Z,23.96
2022-10-31T14:21:32.400Z,24.03
2022-10-31T14:23:58.953Z,24.05
2022-10-31T14:26:29.208Z,24.12
2022-10-31T14:28:57.717Z,23.73
2022-10-31T14:31:37.761Z,23.38
2022-10-31T14:34:18.188Z,23.10
2022-10-31T14:36:57.632Z,23.35
2022-10-31T14:41:57.839Z,23.13
2022-10-31T14:44:27.311Z,23.16
2022-10-31T14:47:06.867Z,23.28
2022-10-31T14:49:48.534Z,22.55
2022-10-31T14:52:17.632Z,22.64
2022-10-31T14:54:53.368Z,23.05
2022-10-31T14:57:38.127Z,23.22
2022-10-31T15:00:07.800Z,22.91
2022-10-31T15:02:46.452Z,21.84
2022-10-31T15:05:14.072Z,22.74
2022-10-31T15:07:57.206Z,23.00
2022-10-31T15:10:34.234Z,23.01
2022-10-31T15:13:22.384Z,23.19
2022-10-31T15:15:52.447Z,22.92
2022-10-31T15:18:25.926Z,23.01
2022-10-31T15:20:53.803Z,23.32
2022-10-31T15:23:29.223Z,23.24
2022-10-31T15:26:02.998Z,23.14
2022-10-31T15:28:29.958Z,22.68
2022-10-31T15:30:58.894Z,22.78
2022-10-31T15:33:46.955Z,22.44
2022-10-31T15:36:24.109Z,22.77
2022-10-31T15:38:57.023Z,22.76
2022-10-31T15:41:32.703Z,23.02
2022-10-31T15:44:13.238Z,22.91
2022-10-31T15:46:39.816Z,22.94
2022-10-31T15:49:18.203Z,22.69
2022-10-31T15:51:44.712Z,22.44
2022-10-31T15:54:13.322Z,22.02
2022-10-31T15:56:39.778Z,21.66
2022-10-31T15:59:07.432Z,22.05
2022-10-31T16:01:34.744Z,21.60
2022-10-31T16:04:05.909Z,21.71
2022-10-31T16:06:35.941Z,21.53
2022-10-31T16:09:04.036Z,21.47
2022-10-31T16:11:40.005Z,21.46
2022-10-31T16:14:12.478Z,21.41
2022-10-31T16:16:59.023Z,21.34
2022-10-31T16:19:29.226Z,21.43
2022-10-31T16:22:03.452Z,21.46
2022-10-31T16:24:32.536Z,21.75
2022-10-31T16:27:19.526Z,21.56
2022-10-31T16:29:47.872Z,21.61
2022-10-31T16:32:34.758Z,21.80
2022-10-31T16:35:10.394Z,21.90
2022-10-31T16:37:43.497Z,21.84
2022-10-31T16:40:14.416Z,21.57
2022-10-31T16:42:42.281Z,21.59
2022-10-31T16:45:16.351Z,21.80
2022-10-31T16:47:43.404Z,21.38
2022-10-31T16:50:15.984Z,21.73
2022-10-31T16:52:53.967Z,21.54
2022-10-31T16:55:29.254Z,21.47
2022-10-31T16:57:57.389Z,21.55
2022-10-31T17:00:25.867Z,21.54
2022-10-31T17:02:54.373Z,21.49
2022-10-31T17:05:22.408Z,21.47
2022-10-31T17:07:49.335Z,21.41
2022-10-31T17:10:20.237Z,21.34
2022-10-31T17:12:48.014Z,21.32
2022-10-31T17:15:28.567Z,21.05
2022-10-31T17:17:55.513Z,21.02
2022-10-31T17:20:27.122Z,20.61
2022-10-31T17:22:54.788Z,20.65
2022-10-31T17:25:32.019Z,20.69
2022-10-31T17:27:59.059Z,20.35
2022-10-31T17:30:26.307Z,20.50
2022-10-31T17:32:53.023Z,20.70
2022-10-31T17:35:20.163Z,20.83
2022-10-31T17:37:48.116Z,20.73
2022-10-31T17:40:20.256Z,20.92
2022-10-31T17:42:54.473Z,20.95
2022-10-31T17:45:22.319Z,20.87
2022-10-31T17:47:49.861Z,20.72
2022-10-31T17:50:17.518Z,20.79
2022-10-31T17:52:44.042Z,20.65
2022-10-31T17:55:11.105Z,20.46
2022-10-31T17:57:38.284Z,20.12
2022-10-31T18:00:06.942Z,20.14
2022-10-31T18:02:33.777Z,19.47
2022-10-31T18:05:02.454Z,20.06
2022-10-31T18:07:29.317Z,19.87
2022-10-31T18:09:56.175Z,20.15
2022-10-31T18:12:22.926Z,20.08
2022-10-31T18:14:49.383Z,20.23
2022-10-31T18:17:15.910Z,19.70
2022-10-31T18:19:42.403Z,20.08
2022-10-31T18:22:08.851Z,20.38
2022-10-31T18:24:35.396Z,20.13
2022-10-31T18:27:01.932Z,20.29
2022-10-31T18:29:28.532Z,20.53
2022-10-31T18:31:57.031Z,20.69
2022-10-31T18:34:23.884Z,20.38
2022-10-31T18:36:50.532Z,20.48
2022-10-31T18:39:17.186Z,20.10
2022-10-31T18:41:44.101Z,20.32
2022-10-31T18:44:10.777Z,20.57
2022-10-31T18:46:37.568Z,20.56
2022-10-31T18:49:04.925Z,20.62
2022-10-31T18:51:31.454Z,20.22
2022-10-31T18:54:00.036Z,20.29
2022-10-31T18:56:27.554Z,20.42
2022-10-31T18:58:54.172Z,20.24
2022-10-31T19:01:21.883Z,20.10
2022-10-31T19:03:56.221Z,20.38
2022-10-31T19:06:24.589Z,20.17
2022-10-31T19:08:57.200Z,20.33
2022-10-31T19:11:23.669Z,20.21
2022-10-31T19:13:50.117Z,20.02
2022-10-31T19:16:17.359Z,20.00
2022-10-31T19:18:44.289Z,19.95
2022-10-31T19:21:16.865Z,19.96
2022-10-31T19:23:44.729Z,19.73
2022-10-31T19:26:11.994Z,19.69
2022-10-31T19:28:39.723Z,19.82
2022-10-31T19:31:07.249Z,19.94
2022-10-31T19:33:36.073Z,19.56
2022-10-31T19:36:08.512Z,19.57
2022-10-31T19:38:40.111Z,19.31
2022-10-31T19:41:09.212Z,19.54
2022-10-31T19:43:35.801Z,18.90
2022-10-31T19:46:03.781Z,19.25
2022-10-31T19:48:30.859Z,19.63
2022-10-31T19:51:06.171Z,19.44
2022-10-31T19:53:32.957Z,19.67
2022-10-31T19:55:59.994Z,19.73
2022-10-31T19:58:27.220Z,19.73
2022-10-31T20:00:54.165Z,19.76
2022-10-31T20:03:22.541Z,19.43
2022-10-31T20:05:50.601Z,19.60
2022-10-31T20:08:20.081Z,19.45
2022-10-31T20:10:54.778Z,19.52
2022-10-31T20:13:21.745Z,19.53
2022-10-31T20:15:48.231Z,19.38
2022-10-31T20:18:14.717Z,19.05
2022-10-31T20:20:41.675Z,19.34
2022-10-31T20:23:08.279Z,19.35
2022-10-31T20:25:34.797Z,18.86
2022-10-31T20:28:01.248Z,19.03
2022-10-31T20:30:27.918Z,18.99
2022-10-31T20:32:54.712Z,18.88
2022-10-31T20:35:21.217Z,18.76
2022-10-31T20:37:47.641Z,18.53
2022-10-31T20:40:14.179Z,18.56
2022-10-31T20:42:42.093Z,18.36
2022-10-31T20:45:08.859Z,18.61
2022-10-31T20:47:35.557Z,18.81
2022-10-31T20:50:02.537Z,19.01
2022-10-31T20:52:29.052Z,18.99
2022-10-31T20:54:55.601Z,18.78
2022-10-31T20:57:22.104Z,19.14
2022-10-31T20:59:48.623Z,19.05
2022-10-31T21:02:17.787Z,18.80
2022-10-31T21:04:44.373Z,19.14
2022-10-31T21:07:10.850Z,19.20
2022-10-31T21:09:37.461Z,19.23
2022-10-31T21:12:04.029Z,18.93
2022-10-31T21:14:30.461Z,18.92
2022-10-31T21:16:57.108Z,19.16
2022-10-31T21:19:23.713Z,19.04
2022-10-31T21:21:50.241Z,19.37
2022-10-31T21:26:51.877Z,19.22
2022-10-31T21:29:19.102Z,19.47
2022-10-31T21:31:46.203Z,19.12
2022-10-31T21:34:12.936Z,19.77
2022-10-31T21:36:40.082Z,19.56
2022-10-31T21:39:07.983Z,19.64
2022-10-31T21:41:34.697Z,19.88
2022-10-31T21:44:01.633Z,19.33
2022-10-31T21:46:30.285Z,19.22
2022-10-31T21:48:57.217Z,19.35
2022-10-31T21:51:29.167Z,19.90
2022-10-31T21:54:14.967Z,20.09
2022-10-31T21:56:42.099Z,19.90
2022-10-31T21:59:08.809Z,19.59
2022-10-31T22:01:36.101Z,19.73
2022-10-31T22:04:03.198Z,19.72
2022-10-31T22:06:32.737Z,19.22
2022-10-31T22:09:00.480Z,20.01
2022-10-31T22:11:28.644Z,19.81
2022-10-31T22:13:56.027Z,20.08
2022-10-31T22:16:24.138Z,19.47
2022-10-31T22:18:55.216Z,19.52
2022-10-31T22:21:26.091Z,19.17
2022-10-31T22:23:54.826Z,19.23
2022-10-31T22:26:21.649Z,19.65
2022-10-31T22:28:50.247Z,19.55
2022-10-31T22:31:18.299Z,19.45
2022-10-31T22:33:45.839Z,19.52
2022-10-31T22:36:18.546Z,19.40
2022-10-31T22:38:46.394Z,19.38
2022-10-31T22:41:21.613Z,19.54
2022-10-31T22:43:48.806Z,19.46
2022-10-31T22:46:17.955Z,19.63
2022-10-31T22:48:50.744Z,18.99
2022-10-31T22:51:22.464Z,19.26
2022-10-31T22:53:50.430Z,19.41
2022-10-31T22:56:19.879Z,19.19
2022-10-31T22:58:46.644Z,19.44
2022-10-31T23:01:19.396Z,19.34
2022-10-31T23:03:47.029Z,19.87
2022-10-31T23:06:21.745Z,19.51
2022-10-31T23:08:49.296Z,19.52
2022-10-31T23:11:37.511Z,19.84
2022-10-31T23:14:10.686Z,19.55
2022-10-31T23:16:40.414Z,20.06
2022-10-31T23:19:08.115Z,19.56
2022-10-31T23:21:55.573Z,19.73
2022-10-31T23:24:31.617Z,19.77
2022-10-31T23:27:11.075Z,20.14
2022-10-31T23:29:51.383Z,19.99
2022-10-31T23:32:22.199Z,19.64
2022-10-31T23:34:50.632Z,19.80
2022-10-31T23:37:18.434Z,19.90
2022-10-31T23:39:45.114Z,19.62
2022-10-31T23:42:11.882Z,19.59
2022-10-31T23:44:38.384Z,19.51
2022-10-31T23:47:05.348Z,19.95
2022-10-31T23:49:31.969Z,20.27
2022-10-31T23:51:58.514Z,20.55
2022-10-31T23:54:26.065Z,20.44
2022-10-31T23:56:53.009Z,20.60
2022-10-31T23:59:20.143Z,20.31
